Time;durP1;ratioP1;P1;durP2;ratioP2;P2;SDS_P1;SDS_P2;PMS_P1;PMS_P2;Temp;Humidity;BMP_temperature;BMP_pressure;BME280_temperature;BME280_humidity;BME280_pressure;Samples;Min_cycle;Max_cycle;Signal;HPM_P1;HPM_P2
2023/09/12 00:00:16;;;;;;;31.10;24.98;;;21.30;99.90;;;;;;4972969;28;20038;-66
2023/09/12 00:02:42;;;;;;;30.75;25.20;;;21.30;99.90;;;;;;4954224;28;20057;-66
2023/09/12 00:05:08;;;;;;;27.58;23.88;;;21.30;99.90;;;;;;4972011;28;20049;-66
2023/09/12 00:07:34;;;;;;;33.85;25.10;;;21.30;99.90;;;;;;4979800;28;20447;-71
2023/09/12 00:10:00;;;;;;;28.27;23.90;;;21.20;99.90;;;;;;4979497;28;20050;-65
2023/09/12 00:12:26;;;;;;;28.67;24.30;;;21.20;99.90;;;;;;4986086;28;20045;-65
2023/09/12 00:14:51;;;;;;;29.83;25.25;;;21.20;99.90;;;;;;4980941;28;20046;-66
2023/09/12 00:17:17;;;;;;;30.17;24.95;;;21.20;99.90;;;;;;5005877;28;20393;-66
2023/09/12 00:19:43;;;;;;;33.22;26.33;;;21.20;99.90;;;;;;4977714;28;20069;-66
2023/09/12 00:22:09;;;;;;;30.88;25.27;;;21.10;99.90;;;;;;4973330;28;20039;-67
2023/09/12 00:24:34;;;;;;;32.63;26.20;;;21.20;99.90;;;;;;4988823;28;20121;-72
2023/09/12 00:27:00;;;;;;;31.58;26.00;;;21.10;99.90;;;;;;5003579;28;20053;-66
2023/09/12 00:29:26;;;;;;;31.77;27.50;;;21.10;99.90;;;;;;4976849;28;20042;-66
2023/09/12 00:31:51;;;;;;;34.78;26.45;;;21.10;99.90;;;;;;5007588;28;20072;-66
2023/09/12 00:34:18;;;;;;;31.48;27.30;;;21.10;99.90;;;;;;5020407;28;20075;-66
2023/09/12 00:36:44;;;;;;;29.48;24.95;;;21.10;99.90;;;;;;4976216;28;20093;-66
2023/09/12 00:39:10;;;;;;;34.78;27.95;;;21.10;99.90;;;;;;4976489;28;20074;-66
2023/09/12 00:41:35;;;;;;;31.52;26.65;;;21.00;99.90;;;;;;4976549;28;20046;-66
2023/09/12 00:44:01;;;;;;;33.25;27.48;;;21.00;99.90;;;;;;4984279;28;20070;-66
2023/09/12 00:46:28;;;;;;;35.80;27.17;;;21.00;99.90;;;;;;4975463;28;20475;-66
2023/09/12 00:48:55;;;;;;;33.35;28.13;;;21.00;99.90;;;;;;5013927;28;20054;-67
2023/09/12 00:51:23;;;;;;;32.72;26.48;;;20.90;99.90;;;;;;4981983;28;20046;-66
2023/09/12 00:53:49;;;;;;;32.13;26.40;;;20.90;99.90;;;;;;4998689;28;20459;-66
2023/09/12 00:56:15;;;;;;;32.40;25.90;;;20.90;99.90;;;;;;4983989;28;20054;-66
2023/09/12 00:58:41;;;;;;;32.38;26.10;;;20.90;99.90;;;;;;4981733;28;20077;-71
2023/09/12 01:01:07;;;;;;;33.78;24.70;;;20.90;99.90;;;;;;4993943;28;20061;-66
2023/09/12 01:03:34;;;;;;;32.28;26.98;;;20.90;99.90;;;;;;4978206;28;20047;-66
2023/09/12 01:06:00;;;;;;;34.88;25.08;;;20.90;99.90;;;;;;4984094;28;20472;-66
2023/09/12 01:08:26;;;;;;;31.65;25.55;;;20.80;99.90;;;;;;5010489;28;20137;-66
2023/09/12 01:10:55;;;;;;;32.40;25.98;;;20.80;99.90;;;;;;4986399;28;20062;-66
2023/09/12 01:13:21;;;;;;;30.58;25.58;;;20.80;99.90;;;;;;4989860;28;20050;-67
2023/09/12 01:15:47;;;;;;;29.90;25.17;;;20.80;99.90;;;;;;4997862;28;20057;-66
2023/09/12 01:18:12;;;;;;;29.45;26.23;;;20.80;99.90;;;;;;4995403;28;20046;-66
2023/09/12 01:20:48;;;;;;;32.83;25.90;;;20.80;99.90;;;;;;4993972;28;20104;-66
2023/09/12 01:23:25;;;;;;;36.92;26.10;;;20.80;99.90;;;;;;4995222;28;20038;-66
2023/09/12 01:26:03;;;;;;;32.08;25.70;;;20.70;99.90;;;;;;4996491;28;20188;-67
2023/09/12 01:28:34;;;;;;;29.88;25.73;;;20.70;99.90;;;;;;5026753;28;20046;-67
2023/09/12 01:31:02;;;;;;;32.78;26.17;;;20.70;99.90;;;;;;4992553;28;20046;-67
2023/09/12 01:33:29;;;;;;;31.00;25.65;;;20.70;99.90;;;;;;4993456;28;20536;-67
2023/09/12 01:35:55;;;;;;;30.17;26.33;;;20.70;99.90;;;;;;4993969;28;20133;-66
2023/09/12 01:38:21;;;;;;;29.63;25.75;;;20.70;99.90;;;;;;5010411;28;20124;-66
2023/09/12 01:40:50;;;;;;;32.47;27.10;;;20.70;99.90;;;;;;4991524;28;20125;-71
2023/09/12 01:43:18;;;;;;;32.42;26.15;;;20.60;99.90;;;;;;4993625;28;20062;-67
2023/09/12 01:45:47;;;;;;;35.50;26.95;;;20.60;99.90;;;;;;4979071;28;20400;-67
2023/09/12 01:48:19;;;;;;;32.38;27.40;;;20.60;99.90;;;;;;5000178;28;20045;-66
2023/09/12 01:50:45;;;;;;;30.77;26.42;;;20.60;99.90;;;;;;4979191;28;20081;-67
2023/09/12 01:53:11;;;;;;;34.35;27.27;;;20.50;99.90;;;;;;4991732;28;20100;-67
2023/09/12 01:55:37;;;;;;;36.55;28.50;;;20.50;99.90;;;;;;5023446;28;20399;-66
2023/09/12 01:58:03;;;;;;;37.88;28.52;;;20.50;99.90;;;;;;5006769;28;20042;-67
2023/09/12 02:00:29;;;;;;;35.47;28.30;;;20.40;99.90;;;;;;4993113;28;20403;-66
2023/09/12 02:02:55;;;;;;;34.38;28.25;;;20.40;99.90;;;;;;4990119;28;20058;-66
2023/09/12 02:05:22;;;;;;;34.22;27.80;;;20.40;99.90;;;;;;4994773;28;20100;-67
2023/09/12 02:07:48;;;;;;;35.03;28.02;;;20.40;99.90;;;;;;5002965;28;20445;-66
2023/09/12 02:10:14;;;;;;;34.88;28.77;;;20.30;99.90;;;;;;4992762;28;20113;-67
2023/09/12 02:12:40;;;;;;;37.72;28.20;;;20.30;99.90;;;;;;4991337;28;20054;-66
2023/09/12 02:15:07;;;;;;;35.08;29.17;;;20.30;99.90;;;;;;5008622;28;20047;-66
2023/09/12 02:17:33;;;;;;;33.72;28.38;;;20.20;99.90;;;;;;5004803;28;20069;-67
2023/09/12 02:19:59;;;;;;;33.67;27.77;;;20.20;99.90;;;;;;4981809;28;20493;-67
2023/09/12 02:22:24;;;;;;;33.47;28.70;;;20.20;99.90;;;;;;4989043;28;20042;-66
2023/09/12 02:24:50;;;;;;;36.55;30.27;;;20.20;99.90;;;;;;4993929;28;20042;-66
2023/09/12 02:27:16;;;;;;;39.15;30.25;;;20.10;99.90;;;;;;5002187;28;20057;-66
2023/09/12 02:29:42;;;;;;;36.00;30.50;;;20.10;99.90;;;;;;4994141;28;20046;-66
2023/09/12 02:32:09;;;;;;;35.40;29.60;;;20.10;99.90;;;;;;4992506;28;20112;-71
2023/09/12 02:34:34;;;;;;;36.58;30.02;;;20.10;99.90;;;;;;4986776;28;20045;-67
2023/09/12 02:37:00;;;;;;;35.55;30.17;;;20.10;99.90;;;;;;4982629;28;20480;-67
2023/09/12 02:39:26;;;;;;;41.28;30.52;;;20.00;99.90;;;;;;4978257;28;20052;-66
2023/09/12 02:41:52;;;;;;;38.17;30.15;;;20.00;99.90;;;;;;4994003;28;20126;-67
2023/09/12 02:44:17;;;;;;;37.20;31.13;;;20.00;99.90;;;;;;5022585;28;20046;-66
2023/09/12 02:46:43;;;;;;;37.38;31.25;;;20.00;99.90;;;;;;4993753;28;20049;-66
2023/09/12 02:49:09;;;;;;;39.55;30.50;;;20.00;99.90;;;;;;4980163;28;20093;-69
2023/09/12 02:51:39;;;;;;;38.28;30.73;;;20.00;99.90;;;;;;4993872;28;20133;-66
2023/09/12 02:54:05;;;;;;;37.85;31.67;;;19.90;99.90;;;;;;4983105;28;20046;-68
2023/09/12 02:56:31;;;;;;;42.17;32.42;;;19.90;99.90;;;;;;4985701;28;20076;-66
2023/09/12 02:58:57;;;;;;;39.80;32.67;;;19.90;99.90;;;;;;4997340;28;20046;-72
2023/09/12 03:01:27;;;;;;;38.28;30.60;;;19.90;99.90;;;;;;4992793;28;20519;-67
2023/09/12 03:03:53;;;;;;;36.38;30.73;;;19.90;99.90;;;;;;4993049;28;20042;-67
2023/09/12 03:06:20;;;;;;;36.35;30.17;;;19.90;99.90;;;;;;4975692;28;20063;-67
2023/09/12 03:08:46;;;;;;;36.47;29.90;;;19.90;99.90;;;;;;4992486;28;20531;-66
2023/09/12 03:11:12;;;;;;;41.30;30.75;;;19.90;99.90;;;;;;4991679;28;20047;-66
2023/09/12 03:13:40;;;;;;;36.95;30.05;;;19.80;99.90;;;;;;5004083;28;20031;-66
2023/09/12 03:16:13;;;;;;;36.80;30.42;;;19.80;99.90;;;;;;4990621;28;20108;-66
2023/09/12 03:18:40;;;;;;;42.13;30.75;;;19.80;99.90;;;;;;4995735;28;20061;-66
2023/09/12 03:21:06;;;;;;;39.63;30.38;;;19.70;99.90;;;;;;5034019;28;20535;-69
2023/09/12 03:23:32;;;;;;;36.30;30.15;;;19.70;99.90;;;;;;4991505;28;20054;-66
2023/09/12 03:26:05;;;;;;;40.42;29.75;;;19.70;99.90;;;;;;4989532;28;20042;-65
2023/09/12 03:28:31;;;;;;;36.65;30.10;;;19.70;99.90;;;;;;4992533;28;20046;-66
2023/09/12 03:31:08;;;;;;;38.20;30.50;;;19.60;99.90;;;;;;5004108;28;20046;-67
2023/09/12 03:33:34;;;;;;;36.63;30.13;;;19.60;99.90;;;;;;4991753;28;20061;-67
2023/09/12 03:36:00;;;;;;;38.03;29.77;;;19.60;99.90;;;;;;4989311;28;20457;-67
2023/09/12 03:38:25;;;;;;;37.63;29.20;;;19.70;99.90;;;;;;5023828;28;20094;-67
2023/09/12 03:40:51;;;;;;;35.53;29.38;;;19.70;99.90;;;;;;5002048;28;20046;-67
2023/09/12 03:43:17;;;;;;;35.30;27.55;;;19.70;99.90;;;;;;4992173;28;20121;-66
2023/09/12 03:45:43;;;;;;;38.55;29.15;;;19.70;99.90;;;;;;4991351;28;20094;-66
2023/09/12 03:48:08;;;;;;;34.08;27.23;;;19.70;99.90;;;;;;4986790;28;20133;-67
2023/09/12 03:50:34;;;;;;;33.28;27.17;;;19.70;99.90;;;;;;5030256;28;20045;-67
2023/09/12 03:53:00;;;;;;;31.23;27.08;;;19.70;99.90;;;;;;4999368;28;20046;-66
2023/09/12 03:55:25;;;;;;;33.47;26.42;;;19.70;99.90;;;;;;5012983;28;20145;-67
2023/09/12 03:57:51;;;;;;;33.10;26.55;;;19.60;99.90;;;;;;4987362;28;20046;-67
2023/09/12 04:00:17;;;;;;;34.80;25.98;;;19.60;99.90;;;;;;4991171;28;20042;-67
2023/09/12 04:02:42;;;;;;;33.58;25.80;;;19.50;99.90;;;;;;5000723;28;20121;-65
2023/09/12 04:05:09;;;;;;;36.97;26.38;;;19.50;99.90;;;;;;4992079;28;20034;-66
2023/09/12 04:07:35;;;;;;;31.85;25.45;;;19.50;99.90;;;;;;4989393;28;20121;-66
2023/09/12 04:10:00;;;;;;;32.47;26.60;;;19.40;99.90;;;;;;4992158;28;20129;-66
2023/09/12 04:12:26;;;;;;;39.83;27.50;;;19.40;99.90;;;;;;4994765;28;20041;-66
2023/09/12 04:14:52;;;;;;;31.55;26.63;;;19.40;99.90;;;;;;4992196;28;20527;-66
2023/09/12 04:17:18;;;;;;;34.60;26.90;;;19.30;99.90;;;;;;4990711;28;20042;-67
2023/09/12 04:19:44;;;;;;;33.20;25.98;;;19.40;99.90;;;;;;4985152;28;20118;-66
2023/09/12 04:22:09;;;;;;;34.05;27.23;;;19.30;99.90;;;;;;4993345;28;20486;-66
2023/09/12 04:24:35;;;;;;;34.38;26.65;;;19.30;99.90;;;;;;4989635;28;20050;-66
2023/09/12 04:27:01;;;;;;;33.42;26.70;;;19.30;99.90;;;;;;5007525;28;20138;-66
2023/09/12 04:29:27;;;;;;;33.85;27.58;;;19.30;99.90;;;;;;5014286;28;20042;-66
2023/09/12 04:31:58;;;;;;;33.80;27.35;;;19.30;99.90;;;;;;5009058;28;20046;-66
2023/09/12 04:34:24;;;;;;;34.67;27.10;;;19.30;99.90;;;;;;5001944;28;20051;-66
2023/09/12 04:36:50;;;;;;;35.10;27.88;;;19.30;99.90;;;;;;4971270;28;20061;-66
2023/09/12 04:39:16;;;;;;;37.75;28.73;;;19.30;99.90;;;;;;5025699;28;20038;-66
2023/09/12 04:41:41;;;;;;;33.95;28.83;;;19.20;99.90;;;;;;5008759;28;20512;-66
2023/09/12 04:44:07;;;;;;;32.15;27.52;;;19.30;99.90;;;;;;4987046;28;20043;-65
2023/09/12 04:46:33;;;;;;;32.05;27.33;;;19.20;99.90;;;;;;5003603;28;20058;-66
2023/09/12 04:48:59;;;;;;;37.92;28.88;;;19.30;99.90;;;;;;4972846;28;20138;-67
2023/09/12 04:51:26;;;;;;;36.63;27.27;;;19.30;99.90;;;;;;4978010;28;20129;-66
2023/09/12 04:53:52;;;;;;;35.08;28.50;;;19.30;99.90;;;;;;4989191;28;20050;-66
2023/09/12 04:56:18;;;;;;;34.95;29.08;;;19.20;99.90;;;;;;5005112;28;20042;-66
2023/09/12 04:58:44;;;;;;;38.28;28.80;;;19.20;99.90;;;;;;4991971;28;20038;-66
2023/09/12 05:01:10;;;;;;;35.13;29.02;;;19.20;99.90;;;;;;4989077;28;20132;-67
2023/09/12 05:03:36;;;;;;;36.78;29.15;;;19.20;99.90;;;;;;4980036;28;20049;-66
2023/09/12 05:06:02;;;;;;;37.92;29.48;;;19.20;99.90;;;;;;4999626;28;20523;-66
2023/09/12 05:08:28;;;;;;;34.22;28.27;;;19.20;99.90;;;;;;4986781;28;20050;-65
2023/09/12 05:10:54;;;;;;;32.63;27.00;;;19.20;99.90;;;;;;4995001;28;20054;-66
2023/09/12 05:13:20;;;;;;;34.60;27.80;;;19.20;99.90;;;;;;4975133;28;20057;-66
2023/09/12 05:15:47;;;;;;;35.40;28.23;;;19.20;99.90;;;;;;5020397;28;20047;-66
2023/09/12 05:18:12;;;;;;;35.05;28.30;;;19.20;99.90;;;;;;4975606;28;20051;-66
2023/09/12 05:20:38;;;;;;;38.47;27.98;;;19.20;99.90;;;;;;4975080;28;20050;-67
2023/09/12 05:23:04;;;;;;;37.63;28.73;;;19.20;99.90;;;;;;5014396;28;20050;-67
2023/09/12 05:25:30;;;;;;;37.03;29.75;;;19.10;99.90;;;;;;4989747;28;20038;-66
2023/09/12 05:27:56;;;;;;;35.78;28.23;;;19.10;99.90;;;;;;5012426;28;20080;-68
2023/09/12 05:30:22;;;;;;;36.35;29.20;;;19.10;99.90;;;;;;4977873;28;20046;-67
2023/09/12 05:32:48;;;;;;;36.00;28.17;;;19.10;99.90;;;;;;4981213;28;20057;-66
2023/09/12 05:35:14;;;;;;;39.95;29.75;;;19.10;99.90;;;;;;5018711;28;20042;-66
2023/09/12 05:37:40;;;;;;;39.20;30.08;;;19.10;99.90;;;;;;4974658;28;20122;-65
2023/09/12 05:40:06;;;;;;;36.83;29.15;;;19.10;99.90;;;;;;5012551;28;20118;-66
2023/09/12 05:42:32;;;;;;;37.13;29.85;;;19.00;99.90;;;;;;4977143;28;20078;-64
2023/09/12 05:44:57;;;;;;;41.88;32.28;;;19.10;99.90;;;;;;4976289;28;20153;-65
2023/09/12 05:47:23;;;;;;;43.75;31.27;;;19.10;99.90;;;;;;5013751;28;20373;-65
2023/09/12 05:49:49;;;;;;;42.45;32.97;;;19.10;99.90;;;;;;4979627;28;20157;-66
2023/09/12 05:52:15;;;;;;;44.55;31.73;;;19.10;99.90;;;;;;5007939;28;20058;-66
2023/09/12 05:54:41;;;;;;;43.70;32.15;;;19.10;99.90;;;;;;5010366;28;20614;-65
2023/09/12 05:57:08;;;;;;;43.22;31.02;;;19.20;99.90;;;;;;5001881;28;20391;-65
2023/09/12 05:59:37;;;;;;;46.83;32.45;;;19.20;99.90;;;;;;4996893;28;20046;-66
2023/09/12 06:02:04;;;;;;;42.05;31.38;;;19.20;99.90;;;;;;4987631;28;20058;-65
2023/09/12 06:04:30;;;;;;;43.03;30.98;;;19.20;99.90;;;;;;5013257;28;20050;-67
2023/09/12 06:06:56;;;;;;;42.67;32.05;;;19.20;99.90;;;;;;4983296;28;20204;-66
2023/09/12 06:09:22;;;;;;;43.33;31.55;;;19.20;99.90;;;;;;5006584;28;20057;-66
2023/09/12 06:11:47;;;;;;;43.95;32.35;;;19.10;99.90;;;;;;5005798;28;20034;-65
2023/09/12 06:14:13;;;;;;;60.70;32.75;;;19.10;99.90;;;;;;4984118;28;20078;-67
2023/09/12 06:16:39;;;;;;;49.88;34.08;;;19.10;99.90;;;;;;4961489;28;20050;-66
2023/09/12 06:19:04;;;;;;;44.38;32.67;;;19.00;99.90;;;;;;5002407;28;20109;-68
2023/09/12 06:21:30;;;;;;;48.17;31.20;;;19.00;99.90;;;;;;4991098;28;20130;-67
2023/09/12 06:24:23;;;;;;;56.25;32.92;;;19.00;99.90;;;;;;4986575;28;20085;-66
2023/09/12 06:26:50;;;;;;;66.18;33.15;;;19.00;99.90;;;;;;4979834;28;20073;-64
2023/09/12 06:29:15;;;;;;;60.75;36.25;;;18.90;99.90;;;;;;4989847;28;20445;-68
2023/09/12 06:31:41;;;;;;;55.47;35.53;;;18.90;99.90;;;;;;4973923;28;20051;-67
2023/09/12 06:34:08;;;;;;;53.40;35.47;;;18.90;99.90;;;;;;4974437;28;20477;-65
2023/09/12 06:36:34;;;;;;;61.22;35.22;;;18.90;99.90;;;;;;4975282;28;20496;-64
2023/09/12 06:39:00;;;;;;;59.13;35.60;;;18.90;99.90;;;;;;5020133;28;20051;-66
2023/09/12 06:41:27;;;;;;;57.42;36.38;;;18.90;99.90;;;;;;4982292;28;20105;-66
2023/09/12 06:43:53;;;;;;;59.67;35.05;;;18.90;99.90;;;;;;5004874;28;20043;-64
2023/09/12 06:46:18;;;;;;;66.75;36.05;;;18.90;99.90;;;;;;4974459;28;20433;-66
2023/09/12 06:48:50;;;;;;;63.40;36.28;;;18.90;99.90;;;;;;4980355;28;20049;-66
2023/09/12 06:51:16;;;;;;;71.32;35.63;;;19.00;99.90;;;;;;5004659;28;20061;-66
2023/09/12 06:53:42;;;;;;;59.15;35.28;;;19.00;99.90;;;;;;5009587;28;20406;-65
2023/09/12 06:56:08;;;;;;;61.95;35.75;;;19.10;99.90;;;;;;4990942;28;20048;-64
2023/09/12 06:58:34;;;;;;;59.97;36.00;;;19.20;99.90;;;;;;5004976;28;20035;-64
2023/09/12 07:01:07;;;;;;;57.60;35.22;;;19.20;99.90;;;;;;4982183;28;20134;-64
2023/09/12 07:03:34;;;;;;;56.00;35.50;;;19.30;99.90;;;;;;5013938;28;20491;-69
2023/09/12 07:05:59;;;;;;;58.80;36.50;;;19.40;99.90;;;;;;4980615;28;20047;-65
2023/09/12 07:08:26;;;;;;;52.72;34.42;;;19.50;99.90;;;;;;4975927;28;20097;-64
2023/09/12 07:10:54;;;;;;;53.40;34.33;;;19.50;99.90;;;;;;4976900;28;20632;-65
2023/09/12 07:13:24;;;;;;;56.28;34.80;;;19.50;99.90;;;;;;4974844;28;20049;-65
2023/09/12 07:15:50;;;;;;;49.67;33.17;;;19.60;99.90;;;;;;4973281;28;20437;-64
2023/09/12 07:18:16;;;;;;;51.47;33.67;;;19.60;99.90;;;;;;4984607;28;20609;-65
2023/09/12 07:20:42;;;;;;;47.83;33.90;;;19.70;99.90;;;;;;5018772;28;20045;-65
2023/09/12 07:23:08;;;;;;;49.88;33.40;;;19.80;99.90;;;;;;4985139;28;20096;-65
2023/09/12 07:25:41;;;;;;;48.28;32.13;;;19.90;99.90;;;;;;4983314;28;20457;-69
2023/09/12 07:28:07;;;;;;;50.72;32.90;;;20.10;99.90;;;;;;4986426;28;20100;-64
2023/09/12 07:30:33;;;;;;;45.50;30.30;;;20.30;99.90;;;;;;5021602;28;20038;-64
2023/09/12 07:32:59;;;;;;;46.35;31.73;;;20.40;99.90;;;;;;4991053;28;20422;-63
2023/09/12 07:35:25;;;;;;;42.05;31.30;;;20.50;99.90;;;;;;4988001;28;20062;-64
2023/09/12 07:37:51;;;;;;;43.65;31.33;;;20.50;99.90;;;;;;4973943;28;20039;-65
2023/09/12 07:40:16;;;;;;;40.42;30.23;;;20.60;99.90;;;;;;5004744;28;20381;-65
2023/09/12 07:42:43;;;;;;;43.22;30.52;;;20.80;99.90;;;;;;5022450;28;20047;-64
2023/09/12 07:45:09;;;;;;;44.08;29.38;;;20.90;99.90;;;;;;5004486;28;20045;-64
2023/09/12 07:47:35;;;;;;;39.30;29.55;;;21.00;99.90;;;;;;4988843;28;20051;-64
2023/09/12 07:50:01;;;;;;;48.03;33.42;;;21.00;99.90;;;;;;4981906;28;20080;-64
2023/09/12 07:52:28;;;;;;;42.75;31.58;;;21.00;99.90;;;;;;5010944;28;20077;-64
2023/09/12 07:55:00;;;;;;;48.90;31.98;;;20.80;99.90;;;;;;4975652;28;20049;-64
2023/09/12 07:57:25;;;;;;;46.45;33.28;;;20.80;99.90;;;;;;5025130;28;20531;-65
2023/09/12 07:59:51;;;;;;;45.20;33.33;;;20.80;99.90;;;;;;4980048;28;20106;-64
2023/09/12 08:02:17;;;;;;;45.20;31.63;;;20.80;99.90;;;;;;4979080;28;20129;-65
2023/09/12 08:04:43;;;;;;;49.60;32.97;;;20.70;99.90;;;;;;4992263;28;20043;-66
2023/09/12 08:07:08;;;;;;;47.17;33.38;;;20.70;99.90;;;;;;4979126;28;20046;-66
2023/09/12 08:09:49;;;;;;;52.03;33.05;;;20.70;99.90;;;;;;5015141;28;20148;-66
2023/09/12 08:12:15;;;;;;;47.33;33.05;;;20.60;99.90;;;;;;4983480;28;20053;-66
2023/09/12 08:14:41;;;;;;;47.85;34.28;;;20.60;99.90;;;;;;4980866;28;20046;-69
2023/09/12 08:17:06;;;;;;;44.42;33.20;;;20.60;99.90;;;;;;4979542;28;20077;-65
2023/09/12 08:19:32;;;;;;;46.65;33.08;;;20.60;99.90;;;;;;5018803;28;20429;-67
2023/09/12 08:21:58;;;;;;;46.17;33.63;;;20.50;99.90;;;;;;4985181;28;20108;-65
2023/09/12 08:24:24;;;;;;;44.75;33.13;;;20.50;99.90;;;;;;4982474;28;20038;-65
2023/09/12 08:26:50;;;;;;;47.40;32.30;;;20.60;99.90;;;;;;5009742;28;20060;-66
2023/09/12 08:29:15;;;;;;;45.00;31.85;;;20.60;99.90;;;;;;5016445;28;20093;-65
2023/09/12 08:31:41;;;;;;;43.08;31.42;;;20.60;99.90;;;;;;4985227;28;20502;-69
2023/09/12 08:34:07;;;;;;;43.63;32.20;;;20.70;99.90;;;;;;4975076;28;20061;-66
2023/09/12 08:36:34;;;;;;;45.90;31.20;;;20.80;99.90;;;;;;4985862;28;20072;-66
2023/09/12 08:39:01;;;;;;;44.90;30.42;;;20.80;99.90;;;;;;4979966;28;20042;-66
2023/09/12 08:41:26;;;;;;;42.17;30.45;;;20.80;99.90;;;;;;5003936;28;20122;-65
2023/09/12 08:43:53;;;;;;;45.67;29.83;;;20.90;99.90;;;;;;5012952;28;20182;-66
2023/09/12 08:46:20;;;;;;;40.25;30.38;;;21.00;99.90;;;;;;4978829;28;20050;-66
2023/09/12 08:48:48;;;;;;;41.88;29.75;;;21.00;99.90;;;;;;4980135;28;20366;-68
2023/09/12 08:51:14;;;;;;;41.60;28.83;;;21.10;99.90;;;;;;4977895;28;20446;-67
2023/09/12 08:53:39;;;;;;;39.63;28.73;;;21.10;99.90;;;;;;4976459;28;20059;-66
2023/09/12 08:56:05;;;;;;;40.15;27.92;;;21.20;99.90;;;;;;4989295;28;20408;-67
2023/09/12 08:58:34;;;;;;;38.10;27.90;;;21.30;99.90;;;;;;4994415;28;20053;-66
2023/09/12 09:01:01;;;;;;;39.33;28.70;;;21.40;99.90;;;;;;4995120;28;20057;-65
2023/09/12 09:03:27;;;;;;;39.13;28.80;;;21.40;99.90;;;;;;5004247;28;20049;-65
2023/09/12 09:05:55;;;;;;;38.13;29.25;;;21.40;99.90;;;;;;4995089;28;20109;-65
2023/09/12 09:08:22;;;;;;;38.55;28.55;;;21.40;99.90;;;;;;5006315;28;20105;-66
2023/09/12 09:11:05;;;;;;;36.65;27.40;;;21.30;99.90;;;;;;4995586;28;20038;-66
2023/09/12 09:13:34;;;;;;;37.47;27.17;;;21.40;99.90;;;;;;5002083;28;20096;-65
2023/09/12 09:16:09;;;;;;;40.00;28.42;;;21.40;99.90;;;;;;4993931;28;20046;-66
2023/09/12 09:18:59;;;;;;;43.13;29.15;;;21.40;99.90;;;;;;5026721;28;20054;-66
2023/09/12 09:21:31;;;;;;;40.33;27.30;;;21.40;99.90;;;;;;4990939;28;20496;-66
2023/09/12 09:24:00;;;;;;;39.45;27.48;;;21.40;99.90;;;;;;4999669;28;20042;-65
2023/09/12 09:26:59;;;;;;;38.15;28.33;;;21.40;99.90;;;;;;4994712;28;20129;-66
2023/09/12 09:29:24;;;;;;;39.88;28.10;;;21.40;99.90;;;;;;4998105;28;20043;-65
2023/09/12 09:31:51;;;;;;;37.10;28.65;;;21.50;99.90;;;;;;4993483;28;20121;-65
2023/09/12 09:34:21;;;;;;;39.03;29.90;;;21.50;99.90;;;;;;4983641;28;20094;-67
2023/09/12 09:36:52;;;;;;;39.63;28.92;;;21.50;99.90;;;;;;4986240;28;20408;-65
2023/09/12 09:39:20;;;;;;;38.40;28.48;;;21.60;99.90;;;;;;4982108;28;20043;-66
2023/09/12 09:41:50;;;;;;;42.42;28.80;;;21.60;99.90;;;;;;4979125;28;20125;-66
2023/09/12 09:44:17;;;;;;;43.75;29.42;;;21.70;99.90;;;;;;4977011;28;20057;-67
2023/09/12 09:46:50;;;;;;;41.13;29.63;;;21.80;99.90;;;;;;5009813;28;20059;-66
2023/09/12 09:49:18;;;;;;;42.25;29.95;;;21.80;99.90;;;;;;4978001;28;20704;-66
2023/09/12 09:51:44;;;;;;;39.67;28.50;;;21.80;99.90;;;;;;4987012;28;20050;-71
2023/09/12 09:54:14;;;;;;;38.60;28.20;;;21.80;99.90;;;;;;4993415;28;20057;-66
2023/09/12 09:56:46;;;;;;;38.22;28.60;;;22.00;99.90;;;;;;5024867;28;20086;-66
2023/09/12 09:59:17;;;;;;;36.83;28.05;;;22.00;99.90;;;;;;4994114;28;20441;-66
2023/09/12 10:01:45;;;;;;;39.78;28.92;;;22.20;99.90;;;;;;4993856;28;20078;-66
2023/09/12 10:04:10;;;;;;;41.17;29.42;;;22.20;99.90;;;;;;4993197;28;20050;-66
2023/09/12 10:06:38;;;;;;;40.33;29.75;;;22.40;99.90;;;;;;5002609;28;20065;-66
2023/09/12 10:09:10;;;;;;;39.63;29.70;;;22.40;99.90;;;;;;4993778;28;20564;-66
2023/09/12 10:11:38;;;;;;;38.13;29.13;;;22.50;99.90;;;;;;4992473;28;20054;-66
2023/09/12 10:14:05;;;;;;;37.97;29.33;;;22.50;99.90;;;;;;4973451;28;20401;-66
2023/09/12 10:16:36;;;;;;;40.25;30.23;;;22.60;99.90;;;;;;4982241;28;20053;-66
2023/09/12 10:19:10;;;;;;;38.35;28.38;;;22.60;99.90;;;;;;4973150;28;20050;-66
2023/09/12 10:21:36;;;;;;;40.65;29.95;;;22.60;99.90;;;;;;4974577;28;20051;-68
2023/09/12 10:24:03;;;;;;;39.22;28.58;;;22.60;99.90;;;;;;4974180;28;20042;-66
2023/09/12 10:26:31;;;;;;;37.00;28.27;;;22.60;99.90;;;;;;4984434;28;20047;-66
2023/09/12 10:28:58;;;;;;;40.00;28.38;;;22.70;99.90;;;;;;4974384;28;20054;-65
2023/09/12 10:31:25;;;;;;;43.60;31.42;;;22.80;99.90;;;;;;4974145;28;20050;-66
2023/09/12 10:33:51;;;;;;;38.60;27.25;;;22.80;99.90;;;;;;4974274;28;20043;-66
2023/09/12 10:36:19;;;;;;;37.53;27.13;;;22.90;99.90;;;;;;4974697;28;20049;-66
2023/09/12 10:38:47;;;;;;;41.53;28.55;;;23.10;99.90;;;;;;5011967;28;20054;-65
2023/09/12 10:41:14;;;;;;;36.25;26.88;;;23.20;99.90;;;;;;4990949;28;20042;-66
2023/09/12 10:43:42;;;;;;;36.90;26.90;;;23.30;99.90;;;;;;4986648;28;20054;-65
2023/09/12 10:46:08;;;;;;;32.03;26.00;;;23.40;99.90;;;;;;4981966;28;20507;-65
2023/09/12 10:48:39;;;;;;;35.83;26.75;;;23.40;99.90;;;;;;4982128;28;20500;-66
2023/09/12 10:51:07;;;;;;;34.80;27.23;;;23.40;99.90;;;;;;4972908;28;20059;-66
2023/09/12 10:53:33;;;;;;;35.40;26.25;;;23.30;99.90;;;;;;4972738;28;20113;-66
2023/09/12 10:56:13;;;;;;;36.67;26.08;;;23.40;99.90;;;;;;5029917;28;20349;-67
2023/09/12 10:59:09;;;;;;;32.47;25.10;;;23.40;99.90;;;;;;4992843;28;20096;-68
2023/09/12 11:01:36;;;;;;;34.65;24.88;;;23.50;99.90;;;;;;4991387;28;20054;-67
2023/09/12 11:04:27;;;;;;;33.10;24.85;;;23.50;99.90;;;;;;4993363;28;20046;-68
2023/09/12 11:06:53;;;;;;;34.00;24.50;;;23.70;99.90;;;;;;4990071;28;20054;-68
2023/09/12 11:09:26;;;;;;;31.63;24.75;;;23.70;99.90;;;;;;5018702;28;20077;-68
2023/09/12 11:12:02;;;;;;;28.73;23.95;;;23.70;99.90;;;;;;4982738;28;20516;-68
2023/09/12 11:14:28;;;;;;;29.58;24.08;;;23.80;99.90;;;;;;4980962;28;20138;-68
2023/09/12 11:17:06;;;;;;;31.52;24.20;;;23.80;99.90;;;;;;4959152;28;20455;-67
2023/09/12 11:19:44;;;;;;;31.27;24.73;;;23.90;99.90;;;;;;4989469;28;20148;-68
2023/09/12 11:22:27;;;;;;;29.23;23.45;;;23.90;99.90;;;;;;4973042;28;20050;-68
2023/09/12 11:24:57;;;;;;;31.33;23.23;;;23.90;99.90;;;;;;4976271;28;20053;-67
2023/09/12 11:27:25;;;;;;;33.15;23.42;;;24.00;99.90;;;;;;4972522;28;20039;-67
2023/09/12 11:29:51;;;;;;;31.20;23.77;;;24.00;99.90;;;;;;4986586;28;20483;-69
2023/09/12 11:32:30;;;;;;;32.78;23.20;;;24.00;99.90;;;;;;5014643;28;20047;-68
2023/09/12 11:34:56;;;;;;;32.20;22.52;;;24.10;99.90;;;;;;4981920;28;20046;-68
2023/09/12 11:37:29;;;;;;;28.38;22.88;;;24.10;99.90;;;;;;4987196;28;20101;-68
2023/09/12 11:39:57;;;;;;;31.50;23.35;;;24.10;99.90;;;;;;5023728;28;20046;-68
2023/09/12 11:42:25;;;;;;;27.70;21.45;;;24.20;99.90;;;;;;4974134;28;20378;-68
2023/09/12 11:44:52;;;;;;;28.85;20.92;;;24.30;99.90;;;;;;4963312;28;20534;-67
2023/09/12 11:47:18;;;;;;;26.73;19.88;;;24.30;99.90;;;;;;4974141;28;20369;-68
2023/09/12 11:49:44;;;;;;;27.73;19.02;;;24.40;99.90;;;;;;4979984;28;20138;-67
2023/09/12 11:52:16;;;;;;;25.40;18.65;;;24.40;99.90;;;;;;4978479;28;20109;-67
2023/09/12 11:54:43;;;;;;;27.38;20.92;;;24.50;99.90;;;;;;4976422;28;20043;-68
2023/09/12 11:57:14;;;;;;;27.98;20.33;;;24.60;99.90;;;;;;4979043;28;20060;-69
2023/09/12 11:59:43;;;;;;;27.17;20.65;;;24.60;99.90;;;;;;5003354;28;20045;-68
2023/09/12 12:02:09;;;;;;;31.23;21.80;;;24.60;99.90;;;;;;5020912;28;20061;-67
2023/09/12 12:04:36;;;;;;;27.75;20.15;;;24.60;99.90;;;;;;4993472;28;20046;-67
2023/09/12 12:07:04;;;;;;;29.48;21.58;;;24.50;99.90;;;;;;5018279;28;20053;-67
2023/09/12 12:09:31;;;;;;;27.88;20.08;;;24.50;99.90;;;;;;4994731;28;20042;-67
2023/09/12 12:12:00;;;;;;;27.25;18.95;;;24.40;99.90;;;;;;4985212;28;20034;-68
2023/09/12 12:14:26;;;;;;;30.05;19.17;;;24.40;99.90;;;;;;4999751;28;20056;-67
2023/09/12 12:16:52;;;;;;;24.02;18.63;;;24.40;99.90;;;;;;4993977;28;20074;-67
2023/09/12 12:19:18;;;;;;;23.88;17.77;;;24.50;99.90;;;;;;4981658;28;20039;-69
2023/09/12 12:21:45;;;;;;;27.90;17.95;;;24.60;99.90;;;;;;4978805;28;20058;-68
2023/09/12 12:24:14;;;;;;;21.38;16.85;;;24.60;99.90;;;;;;4983336;28;20045;-68
2023/09/12 12:26:43;;;;;;;24.23;17.05;;;24.70;99.90;;;;;;4993302;28;20042;-67
2023/09/12 12:29:10;;;;;;;25.45;18.67;;;24.80;99.90;;;;;;5003185;28;20050;-68